Time;durP1;ratioP1;P1;durP2;ratioP2;P2;SDS_P1;SDS_P2;PMS_P1;PMS_P2;Temp;Humidity;BMP_temperature;BMP_pressure;BME280_temperature;BME280_humidity;BME280_pressure;Samples;Min_cycle;Max_cycle;Signal;HPM_P1;HPM_P2
2023/01/28 00:02:08;;;;;;;0.10;0.10;;;1.60;99.90;12.80;163505.00;;;;4961895;28;20224;-78
2023/01/28 00:04:36;;;;;;;0.20;0.20;;;1.60;99.90;12.80;163505.00;;;;4962494;28;20201;-78
2023/01/28 00:07:05;;;;;;;0.10;0.10;;;1.60;99.90;12.80;163505.00;;;;4963827;28;20198;-79
2023/01/28 00:09:33;;;;;;;0.10;0.10;;;1.60;99.90;12.80;163505.00;;;;4960516;28;20675;-77
2023/01/28 00:12:01;;;;;;;0.13;0.13;;;1.60;99.90;12.80;163505.00;;;;4961265;28;20228;-77
2023/01/28 00:14:29;;;;;;;0.10;0.10;;;1.60;99.90;12.80;163505.00;;;;4958952;28;20238;-77
2023/01/28 00:16:57;;;;;;;0.10;0.10;;;1.60;99.90;12.80;163505.00;;;;4966955;28;20193;-77
2023/01/28 00:19:25;;;;;;;0.10;0.10;;;1.60;99.90;12.80;163505.00;;;;4959693;28;20205;-77
2023/01/28 00:21:53;;;;;;;0.10;0.10;;;1.60;99.90;12.80;163505.00;;;;4955979;28;20205;-79
2023/01/28 00:24:22;;;;;;;0.10;0.10;;;1.60;99.90;12.80;163505.00;;;;4958387;28;20269;-78
2023/01/28 00:26:50;;;;;;;0.10;0.10;;;1.60;99.90;12.80;163505.00;;;;4957865;28;20663;-76
2023/01/28 00:29:18;;;;;;;0.10;0.10;;;1.60;99.90;12.80;163505.00;;;;4942082;28;20239;-78
2023/01/28 00:31:46;;;;;;;0.10;0.10;;;1.60;99.90;12.80;163505.00;;;;4958000;28;20238;-77
2023/01/28 00:34:14;;;;;;;0.10;0.10;;;1.70;99.90;12.80;163505.00;;;;4961763;28;20198;-78
2023/01/28 00:36:42;;;;;;;0.10;0.10;;;1.70;99.90;12.80;163505.00;;;;4952023;29;20213;-78
2023/01/28 00:39:14;;;;;;;0.10;0.10;;;1.70;99.90;12.80;163505.00;;;;4934079;29;20215;-78
2023/01/28 00:41:43;;;;;;;0.10;0.10;;;1.80;99.90;12.80;163505.00;;;;4949942;28;20218;-78
2023/01/28 00:44:11;;;;;;;0.10;0.10;;;1.80;99.90;12.80;163505.00;;;;4958573;28;20209;-78
2023/01/28 00:46:40;;;;;;;0.10;0.10;;;1.80;99.90;12.80;163505.00;;;;4958009;28;20252;-77
2023/01/28 00:49:09;;;;;;;0.10;0.10;;;1.70;99.90;12.80;163505.00;;;;4952568;29;20210;-77
2023/01/28 00:51:37;;;;;;;0.13;0.13;;;1.70;99.90;12.80;163505.00;;;;4961597;28;20225;-78
2023/01/28 00:54:05;;;;;;;0.10;0.10;;;1.70;99.90;12.80;163505.00;;;;4955044;28;20202;-78
2023/01/28 00:56:35;;;;;;;0.10;0.10;;;1.70;99.90;12.80;163505.00;;;;4943559;28;20236;-78
2023/01/28 00:59:07;;;;;;;0.10;0.10;;;1.60;99.90;12.80;163505.00;;;;4955889;28;20293;-78
2023/01/28 01:01:35;;;;;;;0.10;0.10;;;1.60;99.90;12.80;163505.00;;;;4955456;28;20236;-77
2023/01/28 01:04:03;;;;;;;0.10;0.10;;;1.70;99.90;12.80;163505.00;;;;4959794;28;20201;-78
2023/01/28 01:06:35;;;;;;;0.10;0.10;;;1.60;99.90;12.80;163505.00;;;;4975435;28;20216;-78
2023/01/28 01:09:05;;;;;;;0.10;0.10;;;1.70;99.90;12.80;163505.00;;;;4938279;29;20324;-77
2023/01/28 01:11:35;;;;;;;0.10;0.10;;;1.70;99.90;12.80;163505.00;;;;4958639;28;20232;-77
2023/01/28 01:14:05;;;;;;;0.10;0.10;;;1.70;99.90;12.80;163505.00;;;;4954393;28;20296;-77
2023/01/28 01:16:37;;;;;;;0.10;0.10;;;1.70;99.90;12.80;163505.00;;;;4964427;28;20548;-77
2023/01/28 01:19:06;;;;;;;0.10;0.10;;;1.70;99.90;12.80;163505.00;;;;4958545;28;20198;-78
2023/01/28 01:21:34;;;;;;;0.10;0.10;;;1.70;99.90;12.80;163505.00;;;;4942974;28;20223;-78
2023/01/28 01:24:02;;;;;;;0.10;0.10;;;1.70;99.90;12.80;163505.00;;;;4942658;29;20202;-78
2023/01/28 01:26:30;;;;;;;0.10;0.10;;;1.70;99.90;12.80;163505.00;;;;4962638;28;20193;-78
2023/01/28 01:28:58;;;;;;;0.10;0.10;;;1.80;99.90;12.80;163505.00;;;;4963492;28;20706;-77
2023/01/28 01:31:26;;;;;;;0.10;0.10;;;1.70;99.90;12.80;163505.00;;;;4945958;28;20225;-78
2023/01/28 01:33:55;;;;;;;0.10;0.10;;;1.80;99.90;12.80;163505.00;;;;4960288;28;20194;-77
2023/01/28 01:36:23;;;;;;;0.13;0.13;;;1.80;99.90;12.80;163505.00;;;;4954365;28;20246;-77
2023/01/28 01:38:54;;;;;;;0.10;0.10;;;1.80;99.90;12.80;163505.00;;;;4958726;28;20221;-77
2023/01/28 01:41:28;;;;;;;0.10;0.10;;;1.80;99.90;12.80;163505.00;;;;4953743;28;20649;-76
2023/01/28 01:43:59;;;;;;;0.10;0.10;;;1.80;99.90;12.80;163505.00;;;;4954797;28;20198;-78
2023/01/28 01:46:37;;;;;;;0.10;0.10;;;1.80;99.90;12.80;163505.00;;;;4958843;28;20305;-78
2023/01/28 01:49:18;;;;;;;0.10;0.10;;;1.90;99.90;12.80;163505.00;;;;4944144;29;20218;-77
2023/01/28 01:51:49;;;;;;;0.10;0.10;;;1.90;99.90;12.80;163505.00;;;;4952462;28;20220;-77
2023/01/28 01:54:22;;;;;;;0.10;0.10;;;1.90;99.90;12.80;163505.00;;;;4961453;28;20284;-77
2023/01/28 01:56:51;;;;;;;0.10;0.10;;;2.00;99.90;12.80;163505.00;;;;4962810;28;20644;-78
2023/01/28 01:59:27;;;;;;;0.10;0.10;;;2.00;99.90;12.80;163505.00;;;;4937569;29;20215;-78
2023/01/28 02:01:56;;;;;;;0.10;0.10;;;2.00;99.90;12.80;163505.00;;;;4953507;29;20240;-79
2023/01/28 02:04:32;;;;;;;0.08;0.08;;;2.00;99.90;12.80;163505.00;;;;4953580;28;20198;-77
2023/01/28 02:07:01;;;;;;;0.10;0.10;;;2.00;99.90;12.80;163505.00;;;;4947403;28;20205;-77
2023/01/28 02:09:33;;;;;;;0.10;0.10;;;2.10;99.90;12.80;163505.00;;;;4960263;28;20245;-76
2023/01/28 02:12:07;;;;;;;0.10;0.10;;;2.10;99.90;12.80;163505.00;;;;4946444;28;20209;-78
2023/01/28 02:14:42;;;;;;;0.10;0.10;;;2.10;99.90;12.80;163505.00;;;;4955361;29;20209;-78
2023/01/28 02:17:10;;;;;;;0.10;0.10;;;2.00;99.90;12.80;163505.00;;;;4955096;29;20682;-77
2023/01/28 02:19:54;;;;;;;0.10;0.10;;;2.00;99.90;12.80;163505.00;;;;4971321;28;20234;-78
2023/01/28 02:23:07;;;;;;;0.10;0.10;;;2.10;99.90;12.80;163505.00;;;;4947863;28;20240;-78
2023/01/28 02:26:30;;;;;;;0.20;0.20;;;2.10;99.90;12.80;163505.00;;;;4947969;28;20645;-76
2023/01/28 02:29:10;;;;;;;0.10;0.10;;;2.00;99.90;12.80;163505.00;;;;4908678;29;20223;-78
2023/01/28 02:31:44;;;;;;;0.20;0.20;;;2.00;99.90;12.80;163505.00;;;;4963979;28;20244;-77
2023/01/28 02:34:27;;;;;;;0.10;0.10;;;1.90;99.90;12.80;163505.00;;;;4962482;28;20660;-78
2023/01/28 02:37:03;;;;;;;0.15;0.15;;;1.90;99.90;12.80;163505.00;;;;4950509;29;20202;-78
2023/01/28 02:39:37;;;;;;;0.10;0.10;;;1.80;99.90;12.80;163505.00;;;;4957952;28;20227;-78
2023/01/28 02:42:15;;;;;;;0.17;0.17;;;1.70;99.90;12.80;163505.00;;;;4944405;28;20253;-78
2023/01/28 02:44:44;;;;;;;0.10;0.10;;;1.70;99.90;12.80;163505.00;;;;4954622;28;20197;-78
2023/01/28 02:50:08;;;;;;;0.10;0.10;;;1.60;99.90;12.80;163505.00;;;;4944531;28;20228;-78
2023/01/28 02:55:55;;;;;;;0.13;0.13;;;1.70;99.90;12.80;163505.00;;;;4953014;28;20607;-76
2023/01/28 02:58:37;;;;;;;0.10;0.10;;;1.60;99.90;12.80;163505.00;;;;4957997;28;20334;-76
2023/01/28 03:01:18;;;;;;;0.10;0.10;;;1.60;99.90;12.80;163505.00;;;;4959336;28;20216;-77
2023/01/28 03:03:59;;;;;;;0.10;0.10;;;1.60;99.90;12.80;163505.00;;;;4959102;28;20185;-77
2023/01/28 03:06:35;;;;;;;0.10;0.10;;;1.60;99.90;12.80;163505.00;;;;4959703;28;20606;-78
2023/01/28 03:09:25;;;;;;;0.10;0.10;;;1.60;99.90;12.80;163505.00;;;;4951435;29;20221;-77
2023/01/28 03:37:39;;;;;;;0.10;0.10;;;1.50;99.90;12.80;163505.00;;;;4965926;28;20288;-77
2023/01/28 03:40:14;;;;;;;0.10;0.10;;;1.60;99.90;12.80;163505.00;;;;4963069;28;20322;-76
2023/01/28 03:42:43;;;;;;;0.10;0.10;;;1.60;99.90;12.80;163505.00;;;;4954576;28;20711;-76
2023/01/28 03:45:30;;;;;;;0.10;0.10;;;1.60;99.90;12.80;163505.00;;;;4958837;28;20216;-76
2023/01/28 03:48:00;;;;;;;0.10;0.10;;;1.50;99.90;12.80;163505.00;;;;4953618;28;20260;-76
2023/01/28 03:50:30;;;;;;;0.10;0.10;;;1.50;99.90;12.80;163505.00;;;;4981317;28;20245;-77
2023/01/28 03:53:12;;;;;;;0.10;0.10;;;1.50;99.90;12.80;163505.00;;;;4959196;28;20221;-77
2023/01/28 03:55:53;;;;;;;0.10;0.10;;;1.50;99.90;12.80;163505.00;;;;4967890;28;20233;-77
2023/01/28 03:58:25;;;;;;;0.10;0.10;;;1.60;99.90;12.80;163505.00;;;;4957330;28;20261;-77
2023/01/28 04:00:54;;;;;;;0.10;0.10;;;1.60;99.90;12.80;163505.00;;;;4953331;28;20204;-77
2023/01/28 04:03:22;;;;;;;0.10;0.10;;;1.60;99.90;12.80;163505.00;;;;4959060;28;20622;-77
2023/01/28 04:06:07;;;;;;;0.20;0.20;;;1.60;99.90;12.80;163505.00;;;;4954993;28;20202;-77
2023/01/28 04:08:58;;;;;;;0.10;0.10;;;1.60;99.90;12.80;163505.00;;;;4958128;28;20323;-77
2023/01/28 04:11:50;;;;;;;0.10;0.10;;;1.60;99.90;12.80;163505.00;;;;4973080;28;20217;-77
2023/01/28 04:14:25;;;;;;;0.10;0.10;;;1.60;99.90;12.80;163505.00;;;;4936155;28;20264;-77
2023/01/28 04:16:58;;;;;;;0.10;0.10;;;1.60;99.90;12.80;163505.00;;;;4965900;28;20201;-76
2023/01/28 04:19:32;;;;;;;0.20;0.20;;;1.60;99.90;12.80;163505.00;;;;4959371;28;20206;-76
2023/01/28 04:22:02;;;;;;;0.10;0.10;;;1.50;99.90;12.80;163505.00;;;;4961016;28;20244;-76
2023/01/28 04:24:30;;;;;;;0.10;0.10;;;1.50;99.90;12.80;163505.00;;;;4956144;28;20198;-75
2023/01/28 04:26:58;;;;;;;0.10;0.10;;;1.50;99.90;12.80;163505.00;;;;4941349;28;20595;-76
2023/01/28 04:29:26;;;;;;;0.10;0.10;;;1.50;99.90;12.80;163505.00;;;;4961933;28;20228;-76
2023/01/28 04:31:58;;;;;;;0.10;0.10;;;1.50;99.90;12.80;163505.00;;;;4939534;28;20268;-76
2023/01/28 04:34:45;;;;;;;0.10;0.10;;;1.40;99.90;12.80;163505.00;;;;4955984;28;20265;-76
2023/01/28 04:37:23;;;;;;;0.10;0.10;;;1.40;99.90;12.80;163505.00;;;;4943087;29;20685;-77
2023/01/28 04:40:08;;;;;;;0.10;0.10;;;1.40;99.90;12.80;163505.00;;;;4953285;28;20202;-77
2023/01/28 04:42:57;;;;;;;0.17;0.17;;;1.40;99.90;12.80;163505.00;;;;4963921;28;20597;-77
2023/01/28 04:45:37;;;;;;;0.10;0.10;;;1.40;99.90;12.80;163505.00;;;;4962434;28;20621;-76
2023/01/28 04:48:35;;;;;;;0.20;0.20;;;1.40;99.90;12.80;163505.00;;;;4932140;29;20700;-75
2023/01/28 04:51:31;;;;;;;0.10;0.10;;;1.40;99.90;12.80;163505.00;;;;4939164;28;20320;-76
2023/01/28 04:54:17;;;;;;;0.10;0.10;;;1.30;99.90;12.80;163505.00;;;;4956282;28;20590;-77
2023/01/28 04:56:45;;;;;;;0.10;0.10;;;1.30;99.90;12.80;163505.00;;;;4961731;28;20662;-77
2023/01/28 04:59:13;;;;;;;0.10;0.10;;;1.20;99.90;12.80;163505.00;;;;4936366;29;20537;-77
2023/01/28 05:01:42;;;;;;;0.20;0.20;;;1.20;99.90;12.80;163505.00;;;;4987694;23;20228;-76
2023/01/28 05:04:11;;;;;;;0.10;0.10;;;1.20;99.90;12.80;163505.00;;;;4965394;28;20232;-76
2023/01/28 05:06:39;;;;;;;0.10;0.10;;;1.10;99.90;12.80;163505.00;;;;4990468;28;20200;-77
2023/01/28 05:09:11;;;;;;;0.10;0.10;;;1.10;99.90;12.80;163505.00;;;;4969259;28;20263;-77
2023/01/28 05:11:42;;;;;;;0.10;0.10;;;1.10;99.90;12.80;163505.00;;;;4990306;28;20220;-77
2023/01/28 05:14:10;;;;;;;0.20;0.20;;;1.10;99.90;12.80;163505.00;;;;4973638;28;20622;-77
2023/01/28 05:16:57;;;;;;;0.20;0.20;;;1.10;99.90;12.80;163505.00;;;;4972054;28;20200;-77
2023/01/28 05:19:25;;;;;;;0.10;0.10;;;1.10;99.90;12.80;163505.00;;;;4991361;28;20228;-77
2023/01/28 05:21:53;;;;;;;0.20;0.20;;;1.10;99.90;12.80;163505.00;;;;4975624;28;20311;-77
2023/01/28 05:24:47;;;;;;;0.20;0.20;;;1.00;99.90;12.80;163505.00;;;;4980670;28;20574;-77
2023/01/28 05:27:17;;;;;;;0.20;0.20;;;1.10;99.90;12.80;163505.00;;;;4978262;28;20219;-78
2023/01/28 05:29:45;;;;;;;0.10;0.10;;;1.10;99.90;12.80;163505.00;;;;4974692;28;20201;-78
2023/01/28 05:32:13;;;;;;;0.10;0.10;;;1.00;99.90;12.80;163505.00;;;;4981807;28;20228;-78
2023/01/28 05:34:41;;;;;;;0.10;0.10;;;1.00;99.90;12.80;163505.00;;;;4995921;28;20235;-78
2023/01/28 05:37:12;;;;;;;0.10;0.10;;;1.10;99.90;12.80;163505.00;;;;4976917;28;20295;-77
2023/01/28 05:39:40;;;;;;;0.10;0.10;;;1.00;99.90;12.80;163505.00;;;;4970696;28;20259;-76
2023/01/28 05:42:09;;;;;;;0.10;0.10;;;1.00;99.90;12.80;163505.00;;;;4975784;28;20274;-76
2023/01/28 05:44:45;;;;;;;0.10;0.10;;;1.00;99.90;12.80;163505.00;;;;4977448;28;20192;-76
2023/01/28 05:47:22;;;;;;;0.10;0.10;;;1.00;99.90;12.80;163505.00;;;;4977407;28;20224;-76
2023/01/28 05:49:50;;;;;;;0.10;0.10;;;1.10;99.90;12.80;163505.00;;;;4995325;28;20204;-74
2023/01/28 05:52:37;;;;;;;0.20;0.20;;;1.10;99.90;12.80;163505.00;;;;5004524;28;20311;-75
2023/01/28 05:55:09;;;;;;;0.10;0.10;;;1.00;99.90;12.80;163505.00;;;;4978694;28;20205;-76
2023/01/28 05:57:37;;;;;;;0.15;0.15;;;1.00;99.90;12.80;163505.00;;;;4977739;28;20623;-77
2023/01/28 06:00:11;;;;;;;0.20;0.20;;;1.00;99.90;12.80;163505.00;;;;4977601;28;20203;-78
2023/01/28 06:02:43;;;;;;;0.20;0.20;;;1.10;99.90;12.80;163505.00;;;;4995111;28;20227;-77
2023/01/28 06:05:14;;;;;;;0.10;0.10;;;1.00;99.90;12.80;163505.00;;;;4991249;28;20210;-77
2023/01/28 06:07:45;;;;;;;0.10;0.10;;;1.00;99.90;12.80;163505.00;;;;4969993;28;20212;-76
2023/01/28 06:10:14;;;;;;;0.10;0.10;;;1.00;99.90;12.80;163505.00;;;;4977194;28;20299;-75
2023/01/28 06:12:43;;;;;;;0.10;0.10;;;1.00;99.90;12.80;163505.00;;;;4969933;28;20262;-75
2023/01/28 06:15:31;;;;;;;0.20;0.20;;;1.00;99.90;12.80;163505.00;;;;4996578;28;20294;-76
2023/01/28 06:18:02;;;;;;;0.10;0.10;;;0.90;99.90;12.80;163505.00;;;;5009753;28;20692;-76
2023/01/28 06:20:33;;;;;;;0.20;0.20;;;0.90;99.90;12.80;163505.00;;;;4991265;28;20216;-76
2023/01/28 06:23:02;;;;;;;0.10;0.10;;;0.90;99.90;12.80;163505.00;;;;4986561;28;20239;-76
2023/01/28 06:25:30;;;;;;;0.10;0.10;;;0.90;99.90;12.80;163505.00;;;;4984900;28;20705;-77
2023/01/28 06:28:03;;;;;;;0.10;0.10;;;0.90;99.90;12.80;163505.00;;;;4979719;28;20197;-77
2023/01/28 06:30:32;;;;;;;0.10;0.10;;;0.80;99.90;12.80;163505.00;;;;4997872;28;20204;-76
2023/01/28 06:33:00;;;;;;;0.20;0.20;;;0.80;99.90;12.80;163505.00;;;;4998808;28;20627;-77
2023/01/28 06:35:28;;;;;;;0.10;0.10;;;0.80;99.90;12.80;163505.00;;;;4997906;28;20566;-77
2023/01/28 06:37:56;;;;;;;0.10;0.10;;;0.80;99.90;12.80;163505.00;;;;4999004;28;20196;-77
2023/01/28 06:40:24;;;;;;;0.10;0.10;;;0.80;99.90;12.80;163505.00;;;;4998568;28;20252;-77
2023/01/28 06:42:52;;;;;;;0.20;0.20;;;0.80;99.90;12.80;163505.00;;;;4996989;28;20230;-76
2023/01/28 06:45:20;;;;;;;0.10;0.10;;;0.80;99.90;12.80;163505.00;;;;4993798;28;20559;-77
2023/01/28 06:47:50;;;;;;;0.20;0.20;;;0.80;99.90;12.80;163505.00;;;;4993728;28;20200;-76
2023/01/28 06:50:18;;;;;;;0.10;0.10;;;0.70;99.90;12.80;163505.00;;;;4993519;28;20204;-75
2023/01/28 06:52:46;;;;;;;0.20;0.20;;;0.70;99.90;12.80;163505.00;;;;4991948;28;20277;-76
2023/01/28 06:55:14;;;;;;;0.20;0.20;;;0.70;99.90;12.80;163505.00;;;;4976420;28;20204;-76
2023/01/28 06:57:44;;;;;;;0.20;0.20;;;0.60;99.90;12.80;163505.00;;;;4972625;28;20204;-76
2023/01/28 07:00:14;;;;;;;0.10;0.10;;;0.60;99.90;12.80;163505.00;;;;4993118;28;20546;-77
2023/01/28 07:02:43;;;;;;;0.10;0.10;;;0.70;99.90;12.80;163505.00;;;;4984961;28;20232;-77
2023/01/28 07:05:12;;;;;;;0.17;0.17;;;0.70;99.90;12.80;163505.00;;;;4991043;28;20231;-76
2023/01/28 07:07:40;;;;;;;0.13;0.13;;;0.60;99.90;12.80;163505.00;;;;4988877;28;20676;-76
2023/01/28 07:10:11;;;;;;;0.10;0.10;;;0.60;99.90;12.80;163505.00;;;;4994190;28;20688;-75
2023/01/28 07:12:39;;;;;;;0.10;0.10;;;0.60;99.90;12.80;163505.00;;;;4990465;28;20228;-76
2023/01/28 07:15:09;;;;;;;0.10;0.10;;;0.60;99.90;12.80;163505.00;;;;4992064;28;20564;-76
2023/01/28 07:17:40;;;;;;;0.10;0.10;;;0.60;99.90;12.80;163505.00;;;;4992035;28;20237;-76
2023/01/28 07:20:10;;;;;;;0.20;0.20;;;0.70;99.90;12.80;163505.00;;;;4992111;28;20215;-76
2023/01/28 07:22:42;;;;;;;0.10;0.10;;;0.70;99.90;12.80;163505.00;;;;4990600;28;20303;-76
2023/01/28 07:25:12;;;;;;;0.20;0.20;;;0.60;99.90;12.80;163505.00;;;;4992260;28;20342;-79
2023/01/28 07:27:47;;;;;;;0.20;0.20;;;0.60;99.90;12.80;163505.00;;;;4992331;28;20204;-76
2023/01/28 07:30:17;;;;;;;0.20;0.20;;;0.60;99.90;12.80;163505.00;;;;4992082;28;20204;-74
2023/01/28 07:32:46;;;;;;;0.20;0.20;;;0.60;99.90;12.80;163505.00;;;;4993309;28;20696;-76
2023/01/28 07:35:14;;;;;;;0.10;0.10;;;0.60;99.90;12.80;163505.00;;;;4992225;28;20196;-76
2023/01/28 07:37:52;;;;;;;0.10;0.10;;;0.70;99.90;12.80;163505.00;;;;4988656;28;20194;-78
2023/01/28 07:40:20;;;;;;;0.10;0.10;;;0.70;99.90;12.80;163505.00;;;;4999140;28;20211;-76
2023/01/28 07:42:48;;;;;;;0.10;0.10;;;0.60;99.90;12.80;163505.00;;;;4992777;28;20636;-75
2023/01/28 07:45:20;;;;;;;0.20;0.20;;;0.60;99.90;12.80;163505.00;;;;4972040;28;20200;-75
2023/01/28 07:47:55;;;;;;;0.10;0.10;;;0.60;99.90;12.80;163505.00;;;;4992722;28;20207;-74
2023/01/28 07:50:23;;;;;;;0.20;0.20;;;0.50;99.90;12.80;163505.00;;;;4991408;28;20545;-75
2023/01/28 07:52:53;;;;;;;0.10;0.10;;;0.50;99.90;12.80;163505.00;;;;4992113;28;20246;-75
2023/01/28 07:55:21;;;;;;;0.10;0.10;;;0.40;99.90;12.80;163505.00;;;;4991379;28;20197;-77
2023/01/28 07:57:51;;;;;;;0.10;0.10;;;0.40;99.90;12.80;163505.00;;;;4974459;28;20196;-74
2023/01/28 08:00:21;;;;;;;0.10;0.10;;;0.40;99.90;12.80;163505.00;;;;4991006;28;20204;-74
2023/01/28 08:02:50;;;;;;;0.10;0.10;;;0.50;99.90;12.80;163505.00;;;;4992286;28;20220;-75
2023/01/28 08:05:21;;;;;;;0.10;0.10;;;0.50;99.90;12.80;163505.00;;;;4971895;28;20258;-72
2023/01/28 08:07:49;;;;;;;0.13;0.13;;;0.50;99.90;12.80;163505.00;;;;4991908;28;20225;-73
2023/01/28 08:10:19;;;;;;;0.10;0.10;;;0.40;99.90;12.80;163505.00;;;;4991254;28;20685;-76
2023/01/28 08:12:55;;;;;;;0.10;0.10;;;0.40;99.90;12.80;163505.00;;;;4991736;28;20225;-74
2023/01/28 08:15:23;;;;;;;0.20;0.20;;;0.40;99.90;12.80;163505.00;;;;4989446;28;20483;-72
2023/01/28 08:17:53;;;;;;;0.20;0.20;;;0.40;99.90;12.80;163505.00;;;;4988243;28;20205;-73
2023/01/28 08:20:22;;;;;;;0.20;0.20;;;0.40;99.90;12.80;163505.00;;;;4971146;28;20270;-72
2023/01/28 08:22:50;;;;;;;0.20;0.20;;;0.40;99.90;12.80;163505.00;;;;4993177;28;20228;-75
2023/01/28 08:25:20;;;;;;;0.20;0.20;;;0.40;99.90;12.80;163505.00;;;;4994709;28;20235;-74
2023/01/28 08:27:48;;;;;;;0.10;0.10;;;0.40;99.90;12.80;163505.00;;;;4989680;28;20654;-74
2023/01/28 08:30:17;;;;;;;0.20;0.20;;;0.40;99.90;12.80;163505.00;;;;4992325;28;20204;-74
2023/01/28 08:32:45;;;;;;;0.20;0.20;;;0.40;99.90;12.80;163505.00;;;;4976146;28;20692;-77
2023/01/28 08:35:13;;;;;;;0.10;0.10;;;0.40;99.90;12.80;163505.00;;;;4973892;28;20685;-74
2023/01/28 08:37:41;;;;;;;0.10;0.10;;;0.40;99.90;12.80;163505.00;;;;4991660;28;20196;-74
2023/01/28 08:40:11;;;;;;;0.20;0.20;;;0.40;99.90;12.80;163505.00;;;;4991675;28;20791;-75
2023/01/28 08:42:40;;;;;;;0.15;0.15;;;0.40;99.90;12.80;163505.00;;;;4990866;28;20230;-74
2023/01/28 08:45:09;;;;;;;0.20;0.20;;;0.40;99.90;12.80;163505.00;;;;4991041;28;20196;-74
2023/01/28 08:47:47;;;;;;;0.10;0.10;;;0.40;99.90;12.80;163505.00;;;;4987559;28;20212;-75
2023/01/28 08:50:17;;;;;;;0.10;0.10;;;0.40;99.90;12.80;163505.00;;;;4988394;28;20237;-76
2023/01/28 08:52:46;;;;;;;0.10;0.10;;;0.40;99.90;12.80;163505.00;;;;4990897;28;20226;-75
2023/01/28 08:55:18;;;;;;;0.20;0.20;;;0.40;99.90;12.80;163505.00;;;;4988442;28;20204;-75
2023/01/28 08:57:47;;;;;;;0.10;0.10;;;0.40;99.90;12.80;163505.00;;;;4991985;28;20201;-75
2023/01/28 09:00:16;;;;;;;0.10;0.10;;;0.40;99.90;12.80;163505.00;;;;4976523;28;20244;-75
2023/01/28 09:02:46;;;;;;;0.20;0.20;;;0.40;99.90;12.80;163505.00;;;;4990305;28;20227;-75
2023/01/28 09:05:14;;;;;;;0.20;0.20;;;0.50;99.90;12.80;163505.00;;;;4991806;28;20216;-75
2023/01/28 09:07:42;;;;;;;0.10;0.10;;;0.50;99.90;12.80;163505.00;;;;4994691;28;20859;-75
2023/01/28 09:10:11;;;;;;;0.10;0.10;;;0.40;99.90;12.80;163505.00;;;;4990872;28;20200;-75
2023/01/28 09:12:39;;;;;;;0.10;0.10;;;0.40;99.90;12.80;163505.00;;;;4975183;28;20239;-75
2023/01/28 09:15:11;;;;;;;0.10;0.10;;;0.50;99.90;12.80;163505.00;;;;4996028;28;20866;-75
2023/01/28 09:17:39;;;;;;;0.15;0.15;;;0.50;99.90;12.80;163505.00;;;;5001270;28;20280;-75
2023/01/28 09:20:11;;;;;;;0.10;0.10;;;0.50;99.90;12.80;163505.00;;;;4997863;28;20208;-75
2023/01/28 09:22:40;;;;;;;0.20;0.20;;;0.60;99.90;12.80;163505.00;;;;5001001;28;20231;-75
2023/01/28 09:25:09;;;;;;;0.10;0.10;;;0.60;99.90;12.80;163505.00;;;;4998597;28;20203;-74
2023/01/28 09:27:37;;;;;;;0.10;0.10;;;0.60;99.90;12.80;163505.00;;;;4999034;28;20321;-75
2023/01/28 09:30:06;;;;;;;0.10;0.10;;;0.50;99.90;12.80;163505.00;;;;4999482;28;20216;-75
2023/01/28 09:32:36;;;;;;;0.10;0.10;;;0.50;99.90;12.80;163505.00;;;;4995245;28;20270;-75
2023/01/28 09:35:05;;;;;;;0.20;0.20;;;0.50;99.90;12.80;163505.00;;;;5000441;28;20212;-75
2023/01/28 09:37:33;;;;;;;0.20;0.20;;;0.40;99.90;12.80;163505.00;;;;4980538;28;20204;-75
2023/01/28 09:40:02;;;;;;;0.10;0.10;;;0.40;99.90;12.80;163505.00;;;;4997560;28;20204;-75
2023/01/28 09:42:51;;;;;;;0.20;0.20;;;0.40;99.90;12.80;163505.00;;;;5000727;28;20274;-75
2023/01/28 09:45:29;;;;;;;0.10;0.10;;;0.30;99.90;12.80;163505.00;;;;4972555;28;20980;-75
2023/01/28 09:48:03;;;;;;;0.20;0.20;;;0.30;99.90;12.80;163505.00;;;;4997281;28;20216;-75
2023/01/28 09:50:35;;;;;;;0.20;0.20;;;0.30;99.90;12.80;163505.00;;;;5013197;28;20291;-75
2023/01/28 09:53:10;;;;;;;0.10;0.10;;;0.30;99.90;12.80;163505.00;;;;4992459;28;20639;-75
2023/01/28 09:55:43;;;;;;;0.10;0.10;;;0.30;99.90;12.80;163505.00;;;;4979797;28;20215;-75
2023/01/28 09:58:14;;;;;;;0.20;0.20;;;0.30;99.90;12.80;163505.00;;;;4978207;28;20553;-75
2023/01/28 10:00:54;;;;;;;0.20;0.20;;;0.30;99.90;12.80;163505.00;;;;4976065;28;20204;-75
2023/01/28 10:03:54;;;;;;;0.10;0.10;;;0.40;99.90;12.80;163505.00;;;;4994686;28;20247;-76
2023/01/28 10:06:35;;;;;;;0.20;0.20;;;0.40;99.90;12.80;163505.00;;;;4983184;28;20282;-74
2023/01/28 10:09:25;;;;;;;0.10;0.10;;;0.40;99.90;12.80;163505.00;;;;4996486;28;20648;-74
2023/01/28 10:12:11;;;;;;;0.10;0.10;;;0.50;99.90;12.80;163505.00;;;;4996365;28;20278;-74
2023/01/28 10:15:02;;;;;;;0.10;0.10;;;0.50;99.90;12.80;163505.00;;;;4970781;28;20870;-74
2023/01/28 10:17:36;;;;;;;0.20;0.20;;;0.40;99.90;12.80;163505.00;;;;4993959;28;20205;-75
2023/01/28 10:20:20;;;;;;;0.10;0.10;;;0.40;99.90;12.80;163505.00;;;;4984359;28;20214;-75
2023/01/28 10:22:55;;;;;;;0.10;0.10;;;0.40;99.90;12.80;163505.00;;;;4977902;28;20236;-75
2023/01/28 10:25:29;;;;;;;0.10;0.10;;;0.40;99.90;12.80;163505.00;;;;4977549;28;20211;-75
2023/01/28 10:28:01;;;;;;;0.10;0.10;;;0.30;99.90;12.80;163505.00;;;;4995657;28;20247;-75
2023/01/28 10:30:33;;;;;;;0.10;0.10;;;0.30;99.90;12.80;163505.00;;;;4996255;28;20207;-75
2023/01/28 10:33:05;;;;;;;0.17;0.17;;;0.30;99.90;12.80;163505.00;;;;4997302;28;20235;-75
2023/01/28 10:35:40;;;;;;;0.10;0.10;;;0.30;99.90;12.80;163505.00;;;;5001404;28;20211;-75
2023/01/28 10:38:14;;;;;;;0.10;0.10;;;0.30;99.90;12.80;163505.00;;;;5002989;28;20203;-75
2023/01/28 10:40:46;;;;;;;0.17;0.17;;;0.30;99.90;12.80;163505.00;;;;4998790;28;20224;-75
2023/01/28 10:43:16;;;;;;;0.20;0.20;;;0.30;99.90;12.80;163505.00;;;;4995997;28;20310;-75
2023/01/28 10:45:57;;;;;;;0.15;0.15;;;0.30;99.90;12.80;163505.00;;;;4996997;28;20724;-75
2023/01/28 10:48:32;;;;;;;0.10;0.10;;;0.30;99.90;12.80;163505.00;;;;4997960;28;20633;-75
2023/01/28 10:51:05;;;;;;;0.10;0.10;;;0.30;99.90;12.80;163505.00;;;;4995653;28;20196;-75
2023/01/28 10:53:36;;;;;;;0.10;0.10;;;0.30;99.90;12.80;163505.00;;;;4996422;28;20624;-75
2023/01/28 10:56:09;;;;;;;0.10;0.10;;;0.40;99.90;12.80;163505.00;;;;4995747;28;20215;-75
2023/01/28 10:58:50;;;;;;;0.17;0.17;;;0.40;99.90;12.80;163505.00;;;;4994521;28;20204;-75
2023/01/28 11:01:18;;;;;;;0.10;0.10;;;0.40;99.90;12.80;163505.00;;;;4995624;28;20204;-75
2023/01/28 11:03:55;;;;;;;0.20;0.20;;;0.40;99.90;12.80;163505.00;;;;4997737;28;20483;-76
2023/01/28 11:06:28;;;;;;;0.20;0.20;;;0.50;99.90;12.80;163505.00;;;;4977550;28;20215;-76
2023/01/28 11:08:57;;;;;;;0.15;0.15;;;0.50;99.90;12.80;163505.00;;;;4988772;28;20250;-76
2023/01/28 11:11:29;;;;;;;0.20;0.20;;;0.60;99.90;12.80;163505.00;;;;4978365;28;20266;-76
2023/01/28 11:13:57;;;;;;;0.20;0.20;;;0.60;99.90;12.80;163505.00;;;;4993638;28;20216;-76
2023/01/28 11:16:26;;;;;;;0.20;0.20;;;0.60;99.90;12.80;163505.00;;;;4993395;28;20613;-76
2023/01/28 11:19:02;;;;;;;0.10;0.10;;;0.60;99.90;12.80;163505.00;;;;4993174;28;20193;-76
2023/01/28 11:21:35;;;;;;;0.10;0.10;;;0.60;99.90;12.80;163505.00;;;;4993374;28;20615;-76
2023/01/28 11:24:07;;;;;;;0.10;0.10;;;0.60;99.90;12.80;163505.00;;;;4989944;28;20204;-76
2023/01/28 11:26:39;;;;;;;0.10;0.10;;;0.60;99.90;12.80;163505.00;;;;4993615;28;20204;-76
2023/01/28 11:29:23;;;;;;;0.10;0.10;;;0.60;99.90;12.80;163505.00;;;;4986937;28;20204;-77
2023/01/28 11:31:51;;;;;;;0.10;0.10;;;0.60;99.90;12.80;163505.00;;;;4983398;28;20287;-77
2023/01/28 11:34:20;;;;;;;0.10;0.10;;;0.60;99.90;12.80;163505.00;;;;4988245;28;20228;-77
2023/01/28 11:36:55;;;;;;;0.10;0.10;;;0.60;99.90;12.80;163505.00;;;;4993421;28;20665;-76
2023/01/28 11:39:28;;;;;;;0.17;0.17;;;0.50;99.90;12.80;163505.00;;;;4992314;28;20203;-76
2023/01/28 11:42:11;;;;;;;0.10;0.10;;;0.50;99.90;12.80;163505.00;;;;4985368;28;20216;-76
2023/01/28 11:44:40;;;;;;;0.20;0.20;;;0.40;99.90;12.80;163505.00;;;;4992738;28;20208;-76
2023/01/28 11:47:26;;;;;;;0.10;0.10;;;0.40;99.90;12.80;163505.00;;;;4993056;28;20197;-77
2023/01/28 11:50:18;;;;;;;0.20;0.20;;;0.30;99.90;12.80;163505.00;;;;4990099;28;20658;-77
2023/01/28 11:53:08;;;;;;;0.10;0.10;;;0.30;99.90;12.80;163505.00;;;;4992863;28;20696;-76